sensor_id;sensor_type;location;lat;lon;timestamp;temperature;humidity
30893;DHT22;17595;50.884;4.346;2023-02-25T18:26:13;6.30;99.90
30893;DHT22;17595;50.884;4.346;2023-02-25T18:28:40;6.40;99.90
30893;DHT22;17595;50.884;4.346;2023-02-25T18:31:05;6.40;99.90
30893;DHT22;17595;50.884;4.346;2023-02-25T18:33:32;6.60;99.90
30893;DHT22;17595;50.884;4.346;2023-02-25T18:35:58;6.80;99.90
30893;DHT22;17595;50.884;4.346;2023-02-25T18:38:26;6.90;99.90
30893;DHT22;17595;50.884;4.346;2023-02-25T18:40:54;7.10;99.90
30893;DHT22;17595;50.884;4.346;2023-02-25T18:43:25;7.20;99.90
30893;DHT22;17595;50.884;4.346;2023-02-25T18:45:58;7.30;99.90
30893;DHT22;17595;50.884;4.346;2023-02-25T18:48:24;7.40;99.90
30893;DHT22;17595;50.884;4.346;2023-02-25T18:50:50;7.40;99.90
30893;DHT22;17595;50.884;4.346;2023-02-25T18:53:19;7.40;99.90
30893;DHT22;17595;50.884;4.346;2023-02-25T18:55:47;7.50;99.90
30893;DHT22;17595;50.884;4.346;2023-02-25T18:58:15;7.60;99.90
30893;DHT22;17595;50.884;4.346;2023-02-25T19:00:42;7.50;99.90
30893;DHT22;17595;50.884;4.346;2023-02-25T19:03:14;7.60;99.90
30893;DHT22;17595;50.884;4.346;2023-02-25T19:05:41;7.50;99.90
30893;DHT22;17595;50.884;4.346;2023-02-25T19:08:14;7.60;99.90
30893;DHT22;17595;50.884;4.346;2023-02-25T19:10:41;7.70;99.90
30893;DHT22;17595;50.884;4.346;2023-02-25T19:13:17;7.70;99.90
30893;DHT22;17595;50.884;4.346;2023-02-25T19:15:44;7.60;99.90
30893;DHT22;17595;50.884;4.346;2023-02-25T19:18:14;7.60;99.90
30893;DHT22;17595;50.884;4.346;2023-02-25T19:20:41;7.50;99.90
30893;DHT22;17595;50.884;4.346;2023-02-25T19:23:12;7.60;99.90
30893;DHT22;17595;50.884;4.346;2023-02-25T19:25:38;7.60;99.90
30893;DHT22;17595;50.884;4.346;2023-02-25T19:28:05;7.60;99.90
30893;DHT22;17595;50.884;4.346;2023-02-25T19:30:34;7.50;99.90
30893;DHT22;17595;50.884;4.346;2023-02-25T19:33:01;7.60;99.90
30893;DHT22;17595;50.884;4.346;2023-02-25T19:35:28;7.60;99.90
30893;DHT22;17595;50.884;4.346;2023-02-25T19:37:54;7.60;99.90
30893;DHT22;17595;50.884;4.346;2023-02-25T19:40:20;7.60;99.90
30893;DHT22;17595;50.884;4.346;2023-02-25T19:42:46;7.60;99.90
30893;DHT22;17595;50.884;4.346;2023-02-25T19:45:15;7.50;99.90
30893;DHT22;17595;50.884;4.346;2023-02-25T19:47:41;7.50;99.90
30893;DHT22;17595;50.884;4.346;2023-02-25T19:50:08;7.50;99.90
30893;DHT22;17595;50.884;4.346;2023-02-25T19:52:34;7.50;99.90
30893;DHT22;17595;50.884;4.346;2023-02-25T19:55:00;7.60;99.90
30893;DHT22;17595;50.884;4.346;2023-02-25T19:57:26;7.60;99.90
30893;DHT22;17595;50.884;4.346;2023-02-25T19:59:51;7.50;99.90
30893;DHT22;17595;50.884;4.346;2023-02-25T20:02:17;7.50;99.90
30893;DHT22;17595;50.884;4.346;2023-02-25T20:04:43;7.50;99.90
30893;DHT22;17595;50.884;4.346;2023-02-25T20:07:09;7.40;99.90
30893;DHT22;17595;50.884;4.346;2023-02-25T20:09:34;7.40;99.90
30893;DHT22;17595;50.884;4.346;2023-02-25T20:12:00;7.30;99.90
30893;DHT22;17595;50.884;4.346;2023-02-25T20:14:27;7.30;99.90
30893;DHT22;17595;50.884;4.346;2023-02-25T20:16:53;7.40;99.90
30893;DHT22;17595;50.884;4.346;2023-02-25T20:19:19;7.40;99.90
30893;DHT22;17595;50.884;4.346;2023-02-25T20:21:45;7.30;99.90
30893;DHT22;17595;50.884;4.346;2023-02-25T20:24:11;7.40;99.90
30893;DHT22;17595;50.884;4.346;2023-02-25T20:26:37;7.50;99.90
30893;DHT22;17595;50.884;4.346;2023-02-25T20:29:03;7.20;99.90
30893;DHT22;17595;50.884;4.346;2023-02-25T20:31:29;7.30;99.90
30893;DHT22;17595;50.884;4.346;2023-02-25T20:33:57;7.30;99.90
30893;DHT22;17595;50.884;4.346;2023-02-25T20:36:25;7.20;99.90
30893;DHT22;17595;50.884;4.346;2023-02-25T20:41:41;7.20;99.90
30893;DHT22;17595;50.884;4.346;2023-02-25T20:44:07;7.20;99.90
30893;DHT22;17595;50.884;4.346;2023-02-25T20:46:33;7.20;99.90
30893;DHT22;17595;50.884;4.346;2023-02-25T20:48:59;7.20;99.90
30893;DHT22;17595;50.884;4.346;2023-02-25T20:51:25;7.10;99.90
30893;DHT22;17595;50.884;4.346;2023-02-25T20:53:51;7.20;99.90
30893;DHT22;17595;50.884;4.346;2023-02-25T20:56:21;7.10;99.90
30893;DHT22;17595;50.884;4.346;2023-02-25T20:58:47;7.00;99.90
30893;DHT22;17595;50.884;4.346;2023-02-25T21:01:13;7.00;99.90
30893;DHT22;17595;50.884;4.346;2023-02-25T21:03:39;7.00;99.90
30893;DHT22;17595;50.884;4.346;2023-02-25T21:06:05;7.00;99.90
30893;DHT22;17595;50.884;4.346;2023-02-25T21:08:30;6.90;99.90
30893;DHT22;17595;50.884;4.346;2023-02-25T21:10:57;7.00;99.90
30893;DHT22;17595;50.884;4.346;2023-02-25T21:13:23;7.00;99.90
30893;DHT22;17595;50.884;4.346;2023-02-25T21:15:49;7.00;99.90
30893;DHT22;17595;50.884;4.346;2023-02-25T21:18:14;7.00;99.90
30893;DHT22;17595;50.884;4.346;2023-02-25T21:20:40;7.00;99.90
30893;DHT22;17595;50.884;4.346;2023-02-25T21:23:06;7.00;99.90
30893;DHT22;17595;50.884;4.346;2023-02-25T21:25:31;7.00;99.90
30893;DHT22;17595;50.884;4.346;2023-02-25T21:27:57;7.00;99.90
30893;DHT22;17595;50.884;4.346;2023-02-25T21:30:23;7.00;99.90
30893;DHT22;17595;50.884;4.346;2023-02-25T21:32:49;6.90;99.90
30893;DHT22;17595;50.884;4.346;2023-02-25T21:35:14;6.80;99.90
30893;DHT22;17595;50.884;4.346;2023-02-25T21:37:40;6.70;99.90
30893;DHT22;17595;50.884;4.346;2023-02-25T21:40:06;6.70;99.90
30893;DHT22;17595;50.884;4.346;2023-02-25T21:42:33;6.70;99.90
30893;DHT22;17595;50.884;4.346;2023-02-25T21:44:58;6.80;99.90
30893;DHT22;17595;50.884;4.346;2023-02-25T21:47:24;6.70;99.90
30893;DHT22;17595;50.884;4.346;2023-02-25T21:49:49;6.80;99.90
30893;DHT22;17595;50.884;4.346;2023-02-25T21:52:16;6.80;99.90
30893;DHT22;17595;50.884;4.346;2023-02-25T21:54:42;6.70;99.90
30893;DHT22;17595;50.884;4.346;2023-02-25T21:57:08;6.70;99.90
30893;DHT22;17595;50.884;4.346;2023-02-25T21:59:34;6.70;99.90
30893;DHT22;17595;50.884;4.346;2023-02-25T22:01:59;6.70;99.90
30893;DHT22;17595;50.884;4.346;2023-02-25T22:04:25;6.70;99.90
30893;DHT22;17595;50.884;4.346;2023-02-25T22:06:50;6.60;99.90
30893;DHT22;17595;50.884;4.346;2023-02-25T22:09:17;6.70;99.90
30893;DHT22;17595;50.884;4.346;2023-02-25T22:11:44;6.60;99.90
30893;DHT22;17595;50.884;4.346;2023-02-25T22:14:10;6.60;99.90
30893;DHT22;17595;50.884;4.346;2023-02-25T22:16:37;6.50;99.90
30893;DHT22;17595;50.884;4.346;2023-02-25T22:19:03;6.50;99.90
30893;DHT22;17595;50.884;4.346;2023-02-25T22:21:31;6.40;99.90
30893;DHT22;17595;50.884;4.346;2023-02-25T22:24:00;6.40;99.90
30893;DHT22;17595;50.884;4.346;2023-02-25T22:26:29;6.50;99.90
30893;DHT22;17595;50.884;4.346;2023-02-25T22:28:58;6.50;99.90
30893;DHT22;17595;50.884;4.346;2023-02-25T22:31:25;6.50;99.90
30893;DHT22;17595;50.884;4.346;2023-02-25T22:33:51;6.40;99.90
30893;DHT22;17595;50.884;4.346;2023-02-25T22:36:18;6.40;99.90
30893;DHT22;17595;50.884;4.346;2023-02-25T22:38:45;6.40;99.90
30893;DHT22;17595;50.884;4.346;2023-02-25T22:43:44;6.40;99.90
30893;DHT22;17595;50.884;4.346;2023-02-25T22:46:15;6.40;99.90
30893;DHT22;17595;50.884;4.346;2023-02-25T22:48:43;6.40;99.90
30893;DHT22;17595;50.884;4.346;2023-02-25T22:51:10;6.40;99.90
30893;DHT22;17595;50.884;4.346;2023-02-25T22:53:37;6.40;99.90
30893;DHT22;17595;50.884;4.346;2023-02-25T22:56:08;6.30;99.90
30893;DHT22;17595;50.884;4.346;2023-02-25T22:58:34;6.30;99.90
30893;DHT22;17595;50.884;4.346;2023-02-25T23:01:01;6.30;99.90
30893;DHT22;17595;50.884;4.346;2023-02-25T23:03:27;6.30;99.90
30893;DHT22;17595;50.884;4.346;2023-02-25T23:05:53;6.30;99.90
30893;DHT22;17595;50.884;4.346;2023-02-25T23:08:19;6.30;99.90
30893;DHT22;17595;50.884;4.346;2023-02-25T23:10:46;6.30;99.90
30893;DHT22;17595;50.884;4.346;2023-02-25T23:13:11;6.20;99.90
30893;DHT22;17595;50.884;4.346;2023-02-25T23:15:39;6.20;99.90
30893;DHT22;17595;50.884;4.346;2023-02-25T23:18:06;6.30;99.90
30893;DHT22;17595;50.884;4.346;2023-02-25T23:20:35;6.20;99.90
30893;DHT22;17595;50.884;4.346;2023-02-25T23:23:02;6.20;99.90
30893;DHT22;17595;50.884;4.346;2023-02-25T23:25:37;6.20;99.90
30893;DHT22;17595;50.884;4.346;2023-02-25T23:28:05;6.20;99.90
30893;DHT22;17595;50.884;4.346;2023-02-25T23:30:30;6.10;99.90
30893;DHT22;17595;50.884;4.346;2023-02-25T23:32:56;6.10;99.90
30893;DHT22;17595;50.884;4.346;2023-02-25T23:35:22;6.10;99.90
30893;DHT22;17595;50.884;4.346;2023-02-25T23:37:48;6.10;99.90
30893;DHT22;17595;50.884;4.346;2023-02-25T23:40:14;6.10;99.90
30893;DHT22;17595;50.884;4.346;2023-02-25T23:42:41;6.10;99.90
30893;DHT22;17595;50.884;4.346;2023-02-25T23:45:09;6.00;99.90
30893;DHT22;17595;50.884;4.346;2023-02-25T23:47:36;6.00;99.90
30893;DHT22;17595;50.884;4.346;2023-02-25T23:50:03;6.10;99.90
30893;DHT22;17595;50.884;4.346;2023-02-25T23:52:29;6.00;99.90
30893;DHT22;17595;50.884;4.346;2023-02-25T23:54:55;6.00;99.90
30893;DHT22;17595;50.884;4.346;2023-02-25T23:57:21;6.00;99.90
30893;DHT22;17595;50.884;4.346;2023-02-25T23:59:46;6.00;99.90
